createdAt,value
2022-09-23T00:02:33.516Z,21.60
2022-09-23T00:05:04.897Z,21.30
2022-09-23T00:07:40.350Z,21.60
2022-09-23T00:10:12.532Z,21.50
2022-09-23T00:12:43.597Z,21.20
2022-09-23T00:15:15.032Z,21.10
2022-09-23T00:17:46.168Z,21.20
2022-09-23T00:20:18.482Z,21.20
2022-09-23T00:22:52.469Z,21.00
2022-09-23T00:25:24.513Z,20.80
2022-09-23T00:27:55.692Z,20.50
2022-09-23T00:30:26.801Z,20.40
2022-09-23T00:32:57.949Z,20.40
2022-09-23T00:35:29.054Z,20.20
2022-09-23T00:38:02.697Z,20.20
2022-09-23T00:40:34.235Z,20.20
2022-09-23T00:43:05.646Z,20.10
2022-09-23T00:45:36.703Z,20.00
2022-09-23T00:48:08.651Z,19.90
2022-09-23T00:50:43.000Z,19.80
2022-09-23T00:53:23.508Z,19.70
2022-09-23T00:55:58.652Z,19.80
2022-09-23T00:58:33.205Z,19.60
2022-09-23T01:01:06.256Z,19.60
2022-09-23T01:03:38.186Z,19.50
2022-09-23T01:06:10.681Z,19.50
2022-09-23T01:08:44.939Z,19.40
2022-09-23T01:11:28.775Z,19.40
2022-09-23T01:14:08.203Z,19.30
2022-09-23T01:16:46.964Z,19.30
2022-09-23T01:19:37.651Z,19.30
2022-09-23T01:22:12.862Z,19.30
2022-09-23T01:25:03.699Z,19.30
2022-09-23T01:27:51.347Z,19.10
2022-09-23T01:30:40.766Z,19.10
2022-09-23T01:33:17.936Z,19.00
2022-09-23T01:36:02.485Z,18.90
2022-09-23T01:38:43.314Z,18.90
2022-09-23T01:41:29.164Z,18.80
2022-09-23T01:44:07.794Z,18.70
2022-09-23T01:46:51.660Z,18.70
2022-09-23T01:49:31.689Z,18.50
2022-09-23T01:52:11.847Z,18.40
2022-09-23T01:54:49.454Z,18.40
2022-09-23T01:57:25.641Z,18.30
2022-09-23T02:00:02.683Z,18.20
2022-09-23T02:02:41.739Z,18.10
2022-09-23T02:05:18.575Z,18.10
2022-09-23T02:07:58.079Z,18.00
2022-09-23T02:10:37.461Z,18.00
2022-09-23T02:13:14.808Z,17.90
2022-09-23T02:15:53.049Z,17.90
2022-09-23T02:18:28.401Z,17.90
2022-09-23T02:21:03.241Z,17.80
2022-09-23T02:23:40.359Z,17.70
2022-09-23T02:26:20.388Z,17.70
2022-09-23T02:28:59.323Z,17.60
2022-09-23T02:31:39.995Z,17.50
2022-09-23T02:34:25.261Z,17.50
2022-09-23T02:37:05.202Z,17.50
2022-09-23T02:39:44.356Z,17.40
2022-09-23T02:42:21.600Z,17.40
2022-09-23T02:44:53.103Z,17.30
2022-09-23T02:47:29.803Z,17.30
2022-09-23T02:50:03.068Z,17.20
2022-09-23T02:52:34.200Z,17.20
2022-09-23T02:55:05.549Z,17.20
2022-09-23T02:57:37.335Z,17.20
2022-09-23T03:00:10.018Z,17.20
2022-09-23T03:03:09.661Z,17.20
2022-09-23T03:05:49.155Z,17.10
2022-09-23T03:08:37.512Z,17.10
2022-09-23T03:11:12.255Z,17.00
2022-09-23T03:13:56.706Z,16.90
2022-09-23T03:16:36.611Z,16.90
2022-09-23T03:19:22.909Z,16.80
2022-09-23T03:22:03.917Z,16.70
2022-09-23T03:24:38.889Z,16.70
2022-09-23T03:27:14.861Z,16.70
2022-09-23T03:29:50.101Z,16.60
2022-09-23T03:32:24.216Z,16.60
2022-09-23T03:34:58.093Z,16.50
2022-09-23T03:37:37.160Z,16.50
2022-09-23T03:40:12.994Z,16.50
2022-09-23T03:42:49.824Z,16.50
2022-09-23T03:45:24.945Z,16.50
2022-09-23T03:47:58.075Z,16.40
2022-09-23T03:50:28.621Z,16.40
2022-09-23T03:53:02.301Z,16.40
2022-09-23T03:55:38.388Z,16.30
2022-09-23T03:58:10.361Z,16.30
2022-09-23T04:00:42.014Z,16.30
2022-09-23T04:03:13.185Z,16.30
2022-09-23T04:05:44.279Z,16.30
2022-09-23T04:08:17.259Z,16.20
2022-09-23T04:10:50.694Z,16.10
2022-09-23T04:13:25.658Z,16.10
2022-09-23T04:15:57.464Z,16.10
2022-09-23T04:18:28.626Z,16.00
2022-09-23T04:21:02.480Z,16.00
2022-09-23T04:23:35.417Z,16.00
2022-09-23T04:26:08.797Z,15.90
2022-09-23T04:28:39.860Z,15.90
2022-09-23T04:31:12.173Z,15.80
2022-09-23T04:33:43.224Z,15.80
2022-09-23T04:36:14.617Z,15.80
2022-09-23T04:38:50.509Z,15.70
2022-09-23T04:41:22.347Z,15.70
2022-09-23T04:43:53.427Z,15.70
2022-09-23T04:46:24.556Z,15.60
2022-09-23T04:48:55.677Z,15.60
2022-09-23T04:51:28.719Z,15.60
2022-09-23T04:54:01.759Z,15.50
2022-09-23T04:56:35.060Z,15.50
2022-09-23T04:59:06.857Z,15.50
2022-09-23T05:01:39.336Z,15.40
2022-09-23T05:04:15.305Z,15.40
2022-09-23T05:06:46.810Z,15.40
2022-09-23T05:09:21.103Z,15.40
2022-09-23T05:11:53.437Z,15.40
2022-09-23T05:14:24.693Z,15.30
2022-09-23T05:16:55.891Z,15.30
2022-09-23T05:19:27.683Z,15.30
2022-09-23T05:21:59.298Z,15.30
2022-09-23T05:24:32.553Z,15.30
2022-09-23T05:27:03.807Z,15.20
2022-09-23T05:29:34.945Z,15.10
2022-09-23T05:32:06.026Z,15.10
2022-09-23T05:34:39.819Z,15.10
2022-09-23T05:37:11.083Z,15.00
2022-09-23T05:39:45.023Z,15.00
2022-09-23T05:42:16.869Z,15.00
2022-09-23T05:44:48.820Z,15.00
2022-09-23T05:47:20.005Z,15.00
2022-09-23T05:49:59.510Z,14.90
2022-09-23T05:52:32.254Z,14.80
2022-09-23T05:55:05.530Z,14.80
2022-09-23T05:57:40.773Z,14.80
2022-09-23T06:00:13.742Z,14.80
2022-09-23T06:02:44.361Z,14.80
2022-09-23T06:05:16.499Z,14.80
2022-09-23T06:07:48.432Z,14.70
2022-09-23T06:10:22.965Z,14.70
2022-09-23T06:12:54.053Z,14.70
2022-09-23T06:15:24.971Z,14.70
2022-09-23T06:17:56.221Z,14.70
2022-09-23T06:20:27.691Z,14.70
2022-09-23T06:22:59.271Z,14.70
2022-09-23T06:25:32.182Z,14.70
2022-09-23T06:28:03.348Z,14.60
2022-09-23T06:30:36.508Z,14.60
2022-09-23T06:33:08.041Z,14.60
2022-09-23T06:35:39.381Z,14.60
2022-09-23T06:38:11.071Z,14.60
2022-09-23T06:40:44.142Z,14.50
2022-09-23T06:43:15.492Z,14.50
2022-09-23T06:45:46.687Z,14.50
2022-09-23T06:48:17.795Z,14.40
2022-09-23T06:50:50.249Z,14.50
2022-09-23T06:53:22.488Z,14.40
2022-09-23T06:56:03.956Z,14.40
2022-09-23T06:58:36.397Z,14.30
2022-09-23T07:01:09.532Z,14.30
2022-09-23T07:03:40.733Z,14.30
2022-09-23T07:06:11.648Z,14.20
2022-09-23T07:08:45.106Z,14.20
2022-09-23T07:11:23.290Z,14.30
2022-09-23T07:13:54.539Z,14.30
2022-09-23T07:16:25.676Z,14.30
2022-09-23T07:18:56.779Z,14.30
2022-09-23T07:21:30.169Z,14.30
2022-09-23T07:24:01.300Z,14.30
2022-09-23T07:26:35.232Z,14.30
2022-09-23T07:29:07.710Z,14.40
2022-09-23T07:31:42.681Z,14.40
2022-09-23T07:34:14.586Z,14.40
2022-09-23T07:36:45.689Z,14.50
2022-09-23T07:39:16.769Z,14.50
2022-09-23T07:41:50.237Z,14.50
2022-09-23T07:44:23.362Z,14.60
2022-09-23T07:46:54.491Z,14.60
2022-09-23T07:49:25.679Z,14.70
2022-09-23T07:51:57.135Z,14.70
2022-09-23T07:54:30.665Z,14.70
2022-09-23T07:57:04.612Z,14.80
2022-09-23T07:59:36.067Z,14.80
2022-09-23T08:02:07.679Z,14.80
2022-09-23T08:04:39.224Z,14.80
2022-09-23T08:07:11.561Z,14.80
2022-09-23T08:09:44.781Z,14.80
2022-09-23T08:12:19.845Z,14.80
2022-09-23T08:14:50.996Z,14.80
2022-09-23T08:17:22.055Z,14.80
2022-09-23T08:19:53.192Z,14.80
2022-09-23T08:22:24.847Z,14.80
2022-09-23T08:24:56.872Z,14.80
2022-09-23T08:27:30.310Z,14.80
2022-09-23T08:30:01.347Z,14.80
2022-09-23T08:32:32.724Z,14.80
2022-09-23T08:35:03.771Z,14.80
2022-09-23T08:37:35.062Z,14.80
2022-09-23T08:40:06.620Z,14.80
2022-09-23T08:42:43.844Z,14.80
2022-09-23T08:45:22.324Z,14.80
2022-09-23T08:47:59.207Z,14.80
2022-09-23T08:50:38.637Z,14.80
2022-09-23T08:53:15.979Z,14.80
2022-09-23T08:55:51.858Z,14.80
2022-09-23T08:58:44.293Z,14.80
2022-09-23T09:01:23.444Z,14.80
2022-09-23T09:03:57.405Z,14.80
2022-09-23T09:06:41.895Z,14.70
2022-09-23T09:09:29.002Z,14.70
2022-09-23T09:12:06.353Z,14.70
2022-09-23T09:14:52.960Z,14.60
2022-09-23T09:17:35.157Z,14.60
2022-09-23T09:20:16.190Z,14.50
2022-09-23T09:22:56.914Z,14.40
2022-09-23T09:25:36.470Z,14.40
2022-09-23T09:28:14.714Z,14.30
2022-09-23T09:30:49.675Z,14.30
2022-09-23T09:33:29.018Z,14.30
2022-09-23T09:36:22.651Z,14.20
2022-09-23T09:38:54.905Z,14.20
2022-09-23T09:41:26.824Z,14.10
2022-09-23T09:44:00.348Z,14.10
2022-09-23T09:46:50.336Z,14.10
2022-09-23T09:49:35.659Z,14.10
2022-09-23T09:52:30.627Z,14.10
2022-09-23T09:55:29.906Z,14.10
2022-09-23T09:58:08.118Z,14.10
2022-09-23T10:00:44.562Z,14.00
2022-09-23T10:03:45.517Z,14.00
2022-09-23T10:06:24.588Z,14.00
2022-09-23T10:09:14.801Z,14.00
2022-09-23T10:11:47.483Z,14.00
2022-09-23T10:14:22.491Z,13.90
2022-09-23T10:17:07.161Z,13.90
2022-09-23T10:19:47.028Z,13.90
2022-09-23T10:22:24.206Z,13.90
2022-09-23T10:24:57.997Z,13.90
2022-09-23T10:27:34.386Z,13.90
2022-09-23T10:30:08.428Z,13.90
2022-09-23T10:32:41.487Z,13.90
2022-09-23T10:35:23.309Z,13.90
2022-09-23T10:37:56.002Z,13.90
2022-09-23T10:40:49.892Z,13.90
2022-09-23T10:43:49.899Z,13.90
2022-09-23T10:46:42.841Z,13.80
2022-09-23T10:49:53.507Z,13.80
2022-09-23T10:52:42.141Z,13.80
2022-09-23T10:55:29.890Z,13.80
2022-09-23T10:58:23.818Z,13.80
2022-09-23T11:01:06.301Z,13.80
2022-09-23T11:04:30.509Z,13.80
2022-09-23T11:07:17.038Z,13.80
2022-09-23T11:10:23.320Z,13.80
2022-09-23T11:13:09.895Z,13.80
2022-09-23T11:15:53.433Z,13.80
2022-09-23T11:18:55.759Z,13.70
2022-09-23T11:22:00.667Z,13.70
2022-09-23T11:24:59.508Z,13.70
2022-09-23T11:27:44.428Z,13.70
2022-09-23T11:30:17.989Z,13.70
2022-09-23T11:33:05.275Z,13.70
2022-09-23T11:35:42.601Z,13.70
2022-09-23T11:38:19.745Z,13.80
2022-09-23T11:40:55.765Z,13.80
2022-09-23T11:43:29.546Z,13.80
2022-09-23T11:46:05.303Z,13.90
2022-09-23T11:48:42.597Z,13.90
2022-09-23T11:51:17.928Z,13.90
2022-09-23T11:54:03.459Z,13.90
2022-09-23T11:56:44.707Z,13.90
2022-09-23T11:59:37.033Z,13.90
2022-09-23T12:02:24.666Z,13.90
2022-09-23T12:05:04.479Z,13.80
2022-09-23T12:07:46.923Z,13.70
2022-09-23T12:10:18.837Z,13.70
2022-09-23T12:13:01.406Z,13.70
2022-09-23T12:15:46.372Z,13.60
2022-09-23T12:18:47.013Z,13.60
2022-09-23T12:21:49.611Z,13.60
2022-09-23T12:24:57.181Z,13.60
2022-09-23T12:27:35.671Z,13.60
2022-09-23T12:30:15.573Z,13.60
2022-09-23T12:32:46.816Z,13.60
2022-09-23T12:35:29.123Z,13.70
2022-09-23T12:38:02.729Z,13.70
2022-09-23T12:40:41.729Z,13.70
2022-09-23T12:43:21.150Z,13.70
2022-09-23T12:45:54.728Z,13.70
2022-09-23T12:48:47.072Z,13.80
2022-09-23T12:51:23.455Z,13.80
2022-09-23T12:54:27.640Z,13.70
2022-09-23T12:57:06.104Z,13.80
2022-09-23T12:59:58.821Z,13.90
2022-09-23T13:02:38.609Z,14.00
2022-09-23T13:05:41.153Z,14.00
2022-09-23T13:08:16.493Z,14.10
2022-09-23T13:10:51.676Z,14.20
2022-09-23T13:13:28.483Z,14.20
2022-09-23T13:16:13.098Z,14.30
2022-09-23T13:19:01.234Z,14.30
2022-09-23T13:22:09.642Z,14.30
2022-09-23T13:24:48.493Z,14.30
2022-09-23T13:27:24.182Z,14.40
2022-09-23T13:30:02.506Z,14.40
2022-09-23T13:32:36.103Z,14.40
2022-09-23T13:35:21.480Z,14.50
2022-09-23T13:37:52.841Z,14.50
2022-09-23T13:40:28.391Z,14.50
2022-09-23T13:43:04.028Z,14.50
2022-09-23T13:45:40.485Z,14.50
2022-09-23T13:48:15.763Z,14.60
2022-09-23T13:50:54.254Z,14.60
2022-09-23T13:53:29.496Z,14.60
2022-09-23T13:56:06.502Z,14.60
2022-09-23T13:58:39.817Z,14.60
2022-09-23T14:01:23.783Z,14.60
2022-09-23T14:03:55.110Z,14.60
2022-09-23T14:06:31.039Z,14.60
2022-09-23T14:09:04.940Z,14.70
2022-09-23T14:11:38.302Z,14.70
2022-09-23T14:14:10.893Z,14.70
2022-09-23T14:16:43.948Z,14.70
2022-09-23T14:19:20.025Z,14.70
2022-09-23T14:21:54.896Z,14.70
2022-09-23T14:24:28.310Z,14.80
2022-09-23T14:27:02.393Z,14.80
2022-09-23T14:29:37.041Z,14.80
2022-09-23T14:32:13.538Z,14.80
2022-09-23T14:34:54.582Z,14.80
2022-09-23T14:37:51.276Z,14.80
2022-09-23T14:40:25.619Z,14.80
2022-09-23T14:43:03.221Z,14.90
2022-09-23T14:45:43.610Z,14.90
2022-09-23T14:48:20.542Z,14.90
2022-09-23T14:50:53.552Z,15.00
2022-09-23T14:53:44.498Z,14.90
2022-09-23T14:56:25.192Z,14.90
2022-09-23T14:58:59.577Z,14.90
2022-09-23T15:01:38.488Z,15.00
2022-09-23T15:04:19.269Z,15.00
2022-09-23T15:06:55.568Z,15.10
2022-09-23T15:09:34.414Z,15.10
2022-09-23T15:12:10.447Z,15.20
2022-09-23T15:14:47.345Z,15.20
2022-09-23T15:17:32.200Z,15.10
2022-09-23T15:20:06.585Z,15.20
2022-09-23T15:22:47.490Z,15.20
2022-09-23T15:25:29.610Z,15.20
2022-09-23T15:28:03.788Z,15.30
2022-09-23T15:30:35.153Z,15.30
2022-09-23T15:33:06.362Z,15.30
2022-09-23T15:35:38.641Z,15.30
2022-09-23T15:38:13.729Z,15.40
2022-09-23T15:40:47.306Z,15.40
2022-09-23T15:43:21.976Z,15.40
2022-09-23T15:45:54.802Z,15.50
2022-09-23T15:48:27.803Z,15.40
2022-09-23T15:51:00.018Z,15.50
2022-09-23T15:53:31.174Z,15.60
2022-09-23T15:56:05.051Z,15.60
2022-09-23T15:58:36.829Z,15.50
2022-09-23T16:01:09.898Z,15.60
2022-09-23T16:03:42.584Z,15.70
2022-09-23T16:06:16.236Z,15.80
2022-09-23T16:08:48.444Z,15.90
2022-09-23T16:11:23.600Z,15.90
2022-09-23T16:13:55.063Z,15.90
2022-09-23T16:16:28.468Z,16.00
2022-09-23T16:19:01.189Z,16.00
2022-09-23T16:21:33.556Z,16.10
2022-09-23T16:24:05.380Z,16.10
2022-09-23T16:26:44.158Z,16.30
2022-09-23T16:29:15.614Z,16.20
2022-09-23T16:31:47.942Z,16.30
2022-09-23T16:34:19.987Z,16.40
2022-09-23T16:36:51.513Z,16.50
2022-09-23T16:39:23.838Z,16.50
2022-09-23T16:41:59.476Z,16.50
2022-09-23T16:44:31.743Z,16.50
2022-09-23T16:47:03.218Z,16.60
2022-09-23T16:49:34.277Z,16.70
2022-09-23T16:52:05.400Z,16.70
2022-09-23T16:54:38.325Z,16.60
2022-09-23T16:57:14.223Z,16.70
2022-09-23T17:00:02.817Z,16.60
2022-09-23T17:02:50.342Z,16.70
2022-09-23T17:05:22.615Z,16.90
2022-09-23T17:07:53.885Z,17.20
2022-09-23T17:10:25.933Z,17.40
2022-09-23T17:12:59.798Z,17.10
2022-09-23T17:15:30.870Z,17.30
2022-09-23T17:18:01.733Z,17.50
2022-09-23T17:20:32.868Z,17.50
2022-09-23T17:23:06.049Z,17.60
2022-09-23T17:25:41.858Z,17.80
2022-09-23T17:28:16.469Z,17.80
2022-09-23T17:30:47.225Z,17.90
2022-09-23T17:33:20.914Z,18.00
2022-09-23T17:35:52.342Z,18.20
2022-09-23T17:38:28.064Z,18.20
2022-09-23T17:41:03.028Z,18.30
2022-09-23T17:43:36.666Z,18.40
2022-09-23T17:46:09.535Z,18.10
2022-09-23T17:48:42.818Z,18.20
2022-09-23T17:51:16.462Z,18.30
2022-09-23T17:53:50.211Z,18.40
2022-09-23T17:56:22.421Z,18.40
2022-09-23T17:59:03.434Z,18.30
2022-09-23T18:01:35.836Z,18.30
2022-09-23T18:04:07.725Z,18.70
2022-09-23T18:06:40.371Z,18.90
2022-09-23T18:09:12.116Z,18.80
2022-09-23T18:11:45.527Z,18.70
2022-09-23T18:14:20.073Z,18.80
2022-09-23T18:16:53.008Z,18.70
2022-09-23T18:19:25.840Z,18.80
2022-09-23T18:21:58.697Z,19.00
2022-09-23T18:24:33.684Z,19.20
2022-09-23T18:27:07.410Z,19.10
2022-09-23T18:29:40.604Z,19.40
2022-09-23T18:32:14.800Z,19.10
2022-09-23T18:34:45.704Z,18.90
2022-09-23T18:37:19.818Z,19.00
2022-09-23T18:39:51.434Z,19.00
2022-09-23T18:42:22.517Z,19.00
2022-09-23T18:44:57.471Z,18.80
2022-09-23T18:47:45.786Z,18.70
2022-09-23T18:50:33.322Z,18.80
2022-09-23T18:53:04.976Z,18.70
2022-09-23T18:55:38.046Z,18.90
2022-09-23T18:58:09.275Z,18.90
2022-09-23T19:00:42.504Z,19.10
2022-09-23T19:03:13.718Z,19.20
2022-09-23T19:05:44.752Z,19.40
2022-09-23T19:08:15.878Z,19.30
2022-09-23T19:10:47.018Z,19.20
2022-09-23T19:13:18.716Z,19.00
2022-09-23T19:15:52.698Z,18.80
2022-09-23T19:18:24.824Z,18.90
2022-09-23T19:20:56.984Z,18.60
2022-09-23T19:23:28.781Z,18.50
2022-09-23T19:26:00.784Z,18.50
2022-09-23T19:28:32.378Z,18.60
2022-09-23T19:31:14.012Z,18.80
2022-09-23T19:33:50.373Z,18.80
2022-09-23T19:36:29.299Z,18.70
2022-09-23T19:39:03.625Z,18.80
2022-09-23T19:41:36.473Z,19.10
2022-09-23T19:44:08.193Z,19.30
2022-09-23T19:46:43.709Z,19.20
2022-09-23T19:49:15.130Z,19.20
2022-09-23T19:51:47.519Z,19.40
2022-09-23T19:54:21.929Z,19.30
2022-09-23T19:56:53.533Z,19.50
2022-09-23T19:59:24.654Z,19.40
2022-09-23T20:01:58.146Z,19.40
2022-09-23T20:04:29.507Z,19.20
2022-09-23T20:07:00.356Z,19.20
2022-09-23T20:09:31.461Z,19.40
2022-09-23T20:12:03.520Z,19.50
2022-09-23T20:14:34.656Z,19.70
2022-09-23T20:17:08.641Z,20.10
2022-09-23T20:19:40.135Z,20.50
2022-09-23T20:22:33.219Z,20.80
2022-09-23T20:25:05.040Z,21.00
2022-09-23T20:27:35.555Z,21.20
2022-09-23T20:30:06.789Z,20.90
2022-09-23T20:32:44.503Z,20.90
2022-09-23T20:35:17.270Z,20.80
2022-09-23T20:37:48.318Z,20.40
2022-09-23T20:40:19.444Z,20.30
2022-09-23T20:42:52.359Z,20.00
2022-09-23T20:45:24.340Z,19.90
2022-09-23T20:48:00.872Z,19.80
2022-09-23T20:50:32.290Z,19.90
2022-09-23T20:53:03.418Z,20.00
2022-09-23T20:55:34.796Z,19.90
2022-09-23T20:58:05.901Z,19.70
2022-09-23T21:00:37.573Z,19.90
2022-09-23T21:03:11.347Z,19.70
2022-09-23T21:05:43.942Z,20.00
2022-09-23T21:08:16.311Z,20.30
2022-09-23T21:11:01.362Z,20.50
2022-09-23T21:13:36.689Z,20.50
2022-09-23T21:16:14.286Z,20.50
2022-09-23T21:18:49.381Z,20.10
2022-09-23T21:21:26.221Z,20.00
2022-09-23T21:24:23.729Z,20.10
2022-09-23T21:26:53.095Z,20.00
2022-09-23T21:29:24.322Z,19.80
2022-09-23T21:31:55.468Z,19.90
2022-09-23T21:34:31.394Z,20.20
2022-09-23T21:37:03.370Z,20.70
2022-09-23T21:39:34.773Z,20.80
2022-09-23T21:42:06.449Z,21.00
2022-09-23T21:44:38.823Z,21.50
2022-09-23T21:47:10.734Z,22.00
2022-09-23T21:49:48.486Z,21.80
2022-09-23T21:52:22.110Z,21.70
2022-09-23T21:54:53.389Z,21.50
2022-09-23T21:57:27.245Z,21.40
2022-09-23T21:59:59.189Z,21.10
2022-09-23T22:02:31.496Z,21.40
2022-09-23T22:05:04.326Z,21.50
2022-09-23T22:07:38.201Z,21.60
2022-09-23T22:10:11.277Z,21.20
2022-09-23T22:12:43.552Z,20.90
2022-09-23T22:15:14.587Z,21.10
2022-09-23T22:17:46.444Z,20.60
2022-09-23T22:20:23.376Z,20.50
2022-09-23T22:22:54.620Z,20.60
2022-09-23T22:25:28.698Z,20.40
2022-09-23T22:28:16.813Z,20.90
2022-09-23T22:31:04.583Z,21.50
2022-09-23T22:33:37.154Z,21.40
2022-09-23T22:36:14.174Z,21.50
2022-09-23T22:38:45.553Z,21.70
2022-09-23T22:41:19.281Z,21.90
2022-09-23T22:43:52.253Z,21.80
2022-09-23T22:46:30.013Z,22.20
2022-09-23T22:49:07.397Z,22.30
2022-09-23T22:51:52.690Z,22.50
2022-09-23T22:54:33.455Z,22.10
2022-09-23T22:57:09.820Z,22.10
2022-09-23T22:59:41.666Z,22.00
2022-09-23T23:02:18.169Z,22.00
2022-09-23T23:04:52.140Z,22.20
2022-09-23T23:07:26.559Z,22.30
2022-09-23T23:09:58.956Z,22.40
2022-09-23T23:12:33.993Z,22.30
2022-09-23T23:15:05.761Z,22.10
2022-09-23T23:17:37.652Z,21.80
2022-09-23T23:20:12.178Z,21.60
2022-09-23T23:22:45.958Z,21.80
2022-09-23T23:25:18.533Z,21.80
2022-09-23T23:27:50.910Z,21.80
2022-09-23T23:30:23.293Z,21.80
2022-09-23T23:32:57.076Z,21.80
2022-09-23T23:35:28.232Z,21.80
2022-09-23T23:38:02.899Z,21.70
2022-09-23T23:40:35.281Z,21.20
2022-09-23T23:43:07.245Z,20.90
2022-09-23T23:45:39.360Z,20.70
2022-09-23T23:48:11.799Z,20.90
2022-09-23T23:50:44.096Z,21.20
2022-09-23T23:53:19.244Z,21.40
2022-09-23T23:55:53.660Z,21.70
2022-09-23T23:58:27.323Z,21.90
